Map

Track Data

SID SEASON NUMBER BASIN SUBBASIN NAME ISO_TIME NATURE LAT LON WMO_WIND WMO_PRES WMO_AGENCY TRACK_TYPE DIST2LAND LANDFALL IFLAG USA_AGENCY USA_ATCF_ID USA_LAT USA_LON USA_RECORD USA_STATUS USA_WIND USA_PRES USA_SSHS USA_R34_NE USA_R34_SE USA_R34_SW USA_R34_NW USA_R50_NE USA_R50_SE USA_R50_SW USA_R50_NW USA_R64_NE USA_R64_SE USA_R64_SW USA_R64_NW USA_POCI USA_ROCI USA_RMW USA_EYE TOKYO_LAT TOKYO_LON TOKYO_GRADE TOKYO_WIND TOKYO_PRES TOKYO_R50_DIR TOKYO_R50_LONG TOKYO_R50_SHORT TOKYO_R30_DIR TOKYO_R30_LONG TOKYO_R30_SHORT TOKYO_LAND CMA_LAT CMA_LON CMA_CAT CMA_WIND CMA_PRES HKO_LAT HKO_LON HKO_CAT HKO_WIND HKO_PRES NEWDELHI_LAT NEWDELHI_LON NEWDELHI_GRADE NEWDELHI_WIND NEWDELHI_PRES NEWDELHI_CI NEWDELHI_DP NEWDELHI_POCI REUNION_LAT REUNION_LON REUNION_TYPE REUNION_WIND REUNION_PRES REUNION_TNUM REUNION_CI REUNION_RMW REUNION_R34_NE REUNION_R34_SE REUNION_R34_SW REUNION_R34_NW REUNION_R50_NE REUNION_R50_SE REUNION_R50_SW REUNION_R50_NW REUNION_R64_NE REUNION_R64_SE REUNION_R64_SW REUNION_R64_NW BOM_LAT BOM_LON BOM_TYPE BOM_WIND BOM_PRES BOM_TNUM BOM_CI BOM_RMW BOM_R34_NE BOM_R34_SE BOM_R34_SW BOM_R34_NW BOM_R50_NE BOM_R50_SE BOM_R50_SW BOM_R50_NW BOM_R64_NE BOM_R64_SE BOM_R64_SW BOM_R64_NW BOM_ROCI BOM_POCI BOM_EYE BOM_POS_METHOD BOM_PRES_METHOD NADI_LAT NADI_LON NADI_CAT NADI_WIND NADI_PRES WELLINGTON_LAT WELLINGTON_LON WELLINGTON_WIND WELLINGTON_PRES DS824_LAT DS824_LON DS824_STAGE DS824_WIND DS824_PRES TD9636_LAT TD9636_LON TD9636_STAGE TD9636_WIND TD9636_PRES TD9635_LAT TD9635_LON TD9635_WIND TD9635_PRES TD9635_ROCI NEUMANN_LAT NEUMANN_LON NEUMANN_CLASS NEUMANN_WIND NEUMANN_PRES MLC_LAT MLC_LON MLC_CLASS MLC_WIND MLC_PRES USA_GUST BOM_GUST BOM_GUST_PER REUNION_GUST REUNION_GUST_PER USA_SEAHGT USA_SEARAD_NE USA_SEARAD_SE USA_SEARAD_SW USA_SEARAD_NW STORM_SPEED STORM_DIR
1912306N11130 1912 60 WP MM NOT_NAMED 1912-10-31 16:00:00 NR 10.7000 129.700 main 418 398 __________O___ -1 10.7000 129.700 2 5 270
1912306N11130 1912 60 WP MM NOT_NAMED 1912-10-31 18:00:00 NR 10.7014 129.530 main 398 379 __________P___ -1 10.7014 129.530 2 5 271
1912306N11130 1912 60 WP MM NOT_NAMED 1912-10-31 21:00:00 NR 10.7092 129.252 main 379 340 __________P___ -1 10.7092 129.252 2 6 273
1912306N11130 1912 60 WP MM NOT_NAMED 1912-11-01 00:00:00 NR 10.7318 128.912 main 340 295 __________P___ -1 10.7318 128.912 2 8 275
1912306N11130 1912 60 WP MM NOT_NAMED 1912-11-01 03:00:00 NR 10.7779 128.474 main 295 274 __________P___ -1 10.7779 128.474 2 9 276
1912306N11130 1912 60 WP MM NOT_NAMED 1912-11-01 04:00:00 NR 10.8000 128.300 main 274 229 __________O___ -1 10.8000 128.300 2 11 278
1912306N11130 1912 60 WP MM NOT_NAMED 1912-11-01 06:00:00 NR 10.8549 127.905 main 229 152 __________P___ -1 10.8549 127.905 2 13 278
1912306N11130 1912 60 WP MM NOT_NAMED 1912-11-01 09:00:00 NR 10.9561 127.211 main 152 66 __________P___ -1 10.9561 127.211 2 15 278
1912306N11130 1912 60 WP MM NOT_NAMED 1912-11-01 12:00:00 NR 11.0661 126.426 main 66 10 __________P___ -1 11.0661 126.426 2 16 278
1912306N11130 1912 60 WP MM NOT_NAMED 1912-11-01 15:00:00 NR 11.1696 125.586 main 10 0 __________P___ -1 11.1696 125.586 2 17 277
1912306N11130 1912 60 WP MM NOT_NAMED 1912-11-01 16:00:00 NR 11.2000 125.300 main 0 0 __________O___ -1 11.2000 125.300 2 17 275
1912306N11130 1912 60 WP MM NOT_NAMED 1912-11-01 18:00:00 NR 11.2399 124.716 main 0 0 __________P___ -1 11.2399 124.716 2 18 273
1912306N11130 1912 60 WP MM NOT_NAMED 1912-11-01 21:00:00 NR 11.2869 123.808 main 15 0 __________P___ -1 11.2869 123.808 2 18 273
1912306N11130 1912 60 WP MM NOT_NAMED 1912-11-02 00:00:00 NR 11.3292 122.907 main 0 0 __________P___ -1 11.3292 122.907 2 17 273
1912306N11130 1912 60 WP MM NOT_NAMED 1912-11-02 03:00:00 NR 11.3793 122.061 main 0 10 __________P___ -1 11.3793 122.061 2 16 274
1912306N11130 1912 60 WP MM NOT_NAMED 1912-11-02 04:00:00 NR 11.4000 121.800 main 32 32 __________O___ -1 11.4000 121.800 2 14 274
1912306N11130 1912 60 WP MM NOT_NAMED 1912-11-02 06:00:00 NR 11.4279 121.345 main 70 70 __________P___ -1 11.4279 121.345 2 13 275
1912306N11130 1912 60 WP MM NOT_NAMED 1912-11-02 09:00:00 NR 11.4827 120.731 main 89 73 __________P___ -1 11.4827 120.731 2 12 277
1912306N11130 1912 60 WP MM NOT_NAMED 1912-11-02 12:00:00 NR 11.5752 120.163 main 73 44 __________P___ -1 11.5752 120.163 2 11 283
1912306N11130 1912 60 WP MM NOT_NAMED 1912-11-02 15:00:00 NR 11.7302 119.596 main 44 44 __________P___ -1 11.7302 119.596 2 12 287
1912306N11130 1912 60 WP MM NOT_NAMED 1912-11-02 16:00:00 NR 11.8000 119.400 main 57 57 __________O___ -1 11.8000 119.400 2 14 293
1912306N11130 1912 60 WP MM NOT_NAMED 1912-11-02 18:00:00 NR 12.0000 118.947 main 102 102 __________P___ -1 12.0000 118.947 2 15 297
1912306N11130 1912 60 WP MM NOT_NAMED 1912-11-02 21:00:00 NR 12.3636 118.248 main 187 187 __________P___ -1 12.3636 118.248 2 16 299
1912306N11130 1912 60 WP MM NOT_NAMED 1912-11-03 00:00:00 NR 12.7506 117.555 main 265 273 __________P___ -1 12.7506 117.555 2 15 299
1912306N11130 1912 60 WP MM NOT_NAMED 1912-11-03 03:00:00 NR 13.1013 116.902 main 345 345 __________P___ -1 13.1013 116.902 2 14 298
1912306N11130 1912 60 WP MM NOT_NAMED 1912-11-03 04:00:00 NR 13.2000 116.700 main 369 369 __________O___ -1 13.2000 116.700 2 12 295
1912306N11130 1912 60 WP MM NOT_NAMED 1912-11-03 06:00:00 NR 13.3577 116.329 main 417 417 __________P___ -1 13.3577 116.329 2 11 292
1912306N11130 1912 60 WP MM NOT_NAMED 1912-11-03 09:00:00 NR 13.5386 115.824 main 468 468 __________P___ -1 13.5386 115.824 2 10 287
1912306N11130 1912 60 WP MM NOT_NAMED 1912-11-03 12:00:00 NR 13.6526 115.366 main 516 526 __________P___ -1 13.6526 115.366 2 9 281
1912306N11130 1912 60 WP MM NOT_NAMED 1912-11-03 15:00:00 NR 13.6994 114.938 main 563 563 __________P___ -1 13.6994 114.938 2 8 275
1912306N11130 1912 60 WP MM NOT_NAMED 1912-11-03 16:00:00 NR 13.7000 114.800 main 572 548 __________O___ -1 13.7000 114.800 2 8 267
1912306N11130 1912 60 WP MM NOT_NAMED 1912-11-03 18:00:00 NR 13.6795 114.526 main 548 504 __________P___ -1 13.6795 114.526 2 8 262
1912306N11130 1912 60 WP MM NOT_NAMED 1912-11-03 21:00:00 NR 13.6033 114.123 main 504 459 __________P___ -1 13.6033 114.123 2 8 256
1912306N11130 1912 60 WP MM NOT_NAMED 1912-11-04 00:00:00 NR 13.4874 113.725 main 459 414 __________P___ -1 13.4874 113.725 2 8 252
1912306N11130 1912 60 WP MM NOT_NAMED 1912-11-04 03:00:00 NR 13.3485 113.331 main 414 403 __________P___ -1 13.3485 113.331 2 8 250
1912306N11130 1912 60 WP MM NOT_NAMED 1912-11-04 04:00:00 NR 13.3000 113.200 main 403 __________O___ -1 13.3000 113.200 2 8 249

Digital Typhoon Data and Search

About IBTrACS Database

This database is a web-friendly format of International Best Track Archive for Climate Stewardship (IBTrACS), a global best track data archive curated by NOAA dating back to 1842.

Updated: 2021-10-21